Herzlich willkommen!

Am freundlichen Bodensee-Flugplatz zwischen Schwarzwald, Rhein und Alpen.

Aktuelles

07.06.2024
Wasser auf der Bahn
AD CLSD from 7.06-18.06.2027 17:00UTC FOR FIXED WING ACFT DUE TO FLOODING. HELI PPR 2HR IN 
ADVANCE
21.07.2023
Abflugrichtung
Flying over the airfield is only intended during approaches.
Due to the risk of collision is it not permitted during departures.

Das Überfliegen des Platzes ist nur bei Anflügen vorgesehen. 
Wegen Kollisionsgefahr ist es nicht gestattet bei Abflügen.

Live am Platz

Zeiten genähert. Alle Angaben unverbindlich und ohne Gewähr.

Die Bilder unserer Webcams werden alle 5 Minuten aktualisiert.

Beginn bürgerliche Dämmerung, Sonnenaufgang:

02:44 UTC / 04:44 Lokal
03:22 UTC / 05:22 Lokal

Sonnenuntergang, Ende bürgerliche Dämmerung:

19:25 UTC / 21:25 Lokal
20:04 UTC / 22:04 Lokal

METAR (16.06.2024 13:50 UTC):

EDNY 161350Z 24005KT 190V290 CAVOK 22/10 Q1011
VFR

TAF (16.06.2024 11:00 UTC):

TAF EDNY 161100Z 1612/1621 23005KT 9999 FEW045 BECMG 1616/1618 VRB03KT

Für den Verkehrslandeplatz Konstanz werden keine offiziellen Wetterinformationen ausgegeben. Daher werden zur Orientierung Daten des nahegelegenen Flughafens Friedrichshafen dargestellt.

Das Landeentgelt kann bei uns mit aerops bezahlt werden. Die App für's Handy ist kostenfrei erhältlich.